Time;durP1;ratioP1;P1;durP2;ratioP2;P2;SDS_P1;SDS_P2;PMS_P1;PMS_P2;Temp;Humidity;BMP_temperature;BMP_pressure;BME280_temperature;BME280_humidity;BME280_pressure;Samples;Min_cycle;Max_cycle;Signal;HPM_P1;HPM_P2
2021/01/30 00:01:19;;;;;;;12.57;5.60;;;;;;;0.58;60.38;96499.59;10461099;28;20057;-53
2021/01/30 00:06:22;;;;;;;14.57;5.50;;;;;;;0.57;60.32;96503.16;10459547;28;20398;-54
2021/01/30 00:11:23;;;;;;;8.98;3.78;;;;;;;0.59;60.46;96490.91;10459435;28;20045;-54
2021/01/30 00:16:25;;;;;;;11.85;6.15;;;;;;;0.60;60.43;96489.94;10458616;28;20055;-53
2021/01/30 00:21:28;;;;;;;12.23;6.22;;;;;;;0.64;60.04;96493.84;10460756;28;20049;-55
2021/01/30 00:26:29;;;;;;;10.65;4.40;;;;;;;0.61;60.27;96496.72;10463010;28;20057;-53
2021/01/30 00:31:31;;;;;;;13.40;7.45;;;;;;;0.64;60.30;96492.06;10460334;28;20048;-53
2021/01/30 00:36:34;;;;;;;9.75;4.47;;;;;;;0.50;59.15;96491.78;10494358;28;20052;-52
2021/01/30 00:41:36;;;;;;;9.25;3.83;;;;;;;0.24;59.73;96497.63;10499571;28;20044;-53
2021/01/30 00:46:38;;;;;;;12.57;4.45;;;;;;;0.29;59.59;96495.44;10499304;28;20484;-58
2021/01/30 00:51:40;;;;;;;12.45;4.85;;;;;;;0.29;59.03;96498.03;10495378;28;20048;-51
2021/01/30 00:56:42;;;;;;;10.32;4.22;;;;;;;0.21;59.09;96495.34;10497051;28;20197;-53
2021/01/30 01:01:45;;;;;;;10.32;4.05;;;;;;;0.14;58.75;96500.28;10493894;28;20481;-51
2021/01/30 01:06:54;;;;;;;11.20;4.38;;;;;;;0.11;58.83;96499.75;10493827;28;20052;-54
2021/01/30 01:11:56;;;;;;;14.57;6.50;;;;;;;0.14;58.98;96496.88;10494990;28;20444;-54
2021/01/30 01:16:58;;;;;;;10.93;5.67;;;;;;;0.10;58.54;96491.22;10496135;28;20060;-52
2021/01/30 01:22:01;;;;;;;12.15;5.85;;;;;;;0.07;59.04;96488.09;10495356;28;20436;-52
2021/01/30 01:27:03;;;;;;;13.48;5.82;;;;;;;0.13;58.74;96501.25;10495878;28;20523;-51
2021/01/30 01:32:05;;;;;;;10.82;4.45;;;;;;;0.08;58.73;96487.94;10501341;28;20052;-54
2021/01/30 01:37:08;;;;;;;16.50;7.28;;;;;;;0.14;58.93;96478.81;10499631;28;20143;-53
2021/01/30 01:42:13;;;;;;;13.55;6.60;;;;;;;0.10;59.31;96480.06;10497760;28;20067;-53
2021/01/30 01:47:20;;;;;;;13.88;6.00;;;;;;;0.16;59.52;96482.88;10495767;28;20060;-54
2021/01/30 01:52:30;;;;;;;11.32;5.28;;;;;;;0.15;59.72;96486.41;10495848;28;20048;-53
2021/01/30 01:57:34;;;;;;;10.52;4.82;;;;;;;0.10;60.25;96480.88;10495403;28;20109;-52
2021/01/30 02:02:36;;;;;;;13.35;6.55;;;;;;;0.12;60.53;96480.72;10495900;28;20062;-54
2021/01/30 02:07:41;;;;;;;12.40;5.37;;;;;;;0.04;61.09;96480.63;10495327;28;20059;-53
2021/01/30 02:12:44;;;;;;;14.00;6.57;;;;;;;0.03;61.10;96479.81;10495710;28;20060;-52
2021/01/30 02:17:57;;;;;;;16.00;7.25;;;;;;;-0.09;61.11;96476.63;10495018;28;20041;-54
2021/01/30 02:23:31;;;;;;;14.35;7.45;;;;;;;-0.23;61.23;96474.50;10495444;28;20106;-52
2021/01/30 02:28:43;;;;;;;13.93;6.33;;;;;;;-0.35;60.98;96470.47;10494767;28;20048;-54
2021/01/30 02:34:16;;;;;;;13.98;7.03;;;;;;;-0.39;61.30;96477.69;10494528;28;20067;-52
2021/01/30 02:39:24;;;;;;;11.27;5.63;;;;;;;-0.43;61.06;96467.78;10494502;28;20045;-52
2021/01/30 02:44:29;;;;;;;13.75;6.88;;;;;;;-0.36;60.88;96468.88;10501336;28;20056;-52
2021/01/30 02:49:34;;;;;;;11.60;6.07;;;;;;;-0.28;61.16;96467.19;10501811;28;20041;-52
2021/01/30 02:54:37;;;;;;;14.95;6.93;;;;;;;-0.25;61.18;96471.25;10502148;28;20543;-54
2021/01/30 02:59:46;;;;;;;14.18;6.70;;;;;;;-0.25;61.30;96460.91;10501529;28;20122;-51
2021/01/30 03:04:50;;;;;;;16.70;7.50;;;;;;;-0.15;61.12;96473.81;10501577;28;20396;-51
2021/01/30 03:10:01;;;;;;;12.93;7.55;;;;;;;-0.02;60.73;96466.53;10501843;28;20075;-57
2021/01/30 03:15:11;;;;;;;11.93;5.53;;;;;;;0.03;60.72;96472.06;10501134;28;20753;-51
2021/01/30 03:20:14;;;;;;;15.52;8.45;;;;;;;-0.03;60.56;96463.13;10500466;28;20051;-51
2021/01/30 03:25:20;;;;;;;12.30;5.85;;;;;;;0.03;60.69;96473.81;10500201;28;20072;-52
2021/01/30 03:30:23;;;;;;;19.05;7.75;;;;;;;0.03;60.50;96468.66;10499729;28;20358;-52
2021/01/30 03:35:25;;;;;;;13.97;8.03;;;;;;;0.05;60.29;96469.34;10504275;28;20097;-52
2021/01/30 03:40:28;;;;;;;11.10;5.38;;;;;;;0.05;60.27;96466.75;10501416;28;20068;-54
2021/01/30 03:45:31;;;;;;;11.00;4.82;;;;;;;0.02;59.92;96467.84;10501604;28;20067;-51
2021/01/30 03:50:33;;;;;;;12.60;6.13;;;;;;;-0.08;59.89;96473.06;10500306;28;20076;-52
2021/01/30 03:55:36;;;;;;;16.48;7.20;;;;;;;-0.06;59.68;96471.19;10499432;28;20054;-51
2021/01/30 04:00:38;;;;;;;18.27;7.60;;;;;;;-0.19;59.99;96467.28;10491844;28;20056;-53
2021/01/30 04:05:40;;;;;;;16.40;6.10;;;;;;;-0.24;60.08;96472.88;10459296;28;20060;-52
2021/01/30 04:10:42;;;;;;;18.13;9.30;;;;;;;-0.22;60.20;96476.13;10474739;28;20108;-51
2021/01/30 04:15:45;;;;;;;14.13;6.83;;;;;;;-0.24;60.40;96476.28;10488464;28;20075;-52
2021/01/30 04:20:47;;;;;;;18.33;8.38;;;;;;;-0.20;60.25;96484.53;10497451;28;20036;-51
2021/01/30 04:25:49;;;;;;;16.88;8.77;;;;;;;-0.12;60.38;96476.91;10498998;28;20075;-53
2021/01/30 04:30:51;;;;;;;17.67;8.95;;;;;;;-0.09;60.22;96478.41;10496997;28;20044;-52
2021/01/30 04:35:53;;;;;;;12.05;6.03;;;;;;;-0.06;60.45;96478.91;10496584;28;20205;-51
2021/01/30 04:41:02;;;;;;;18.40;6.90;;;;;;;-0.03;60.68;96480.41;10496358;28;20040;-52
2021/01/30 04:46:15;;;;;;;18.58;7.43;;;;;;;-0.14;61.01;96486.56;10496931;28;20048;-52
2021/01/30 04:51:21;;;;;;;17.55;7.32;;;;;;;-0.15;61.04;96494.47;10496490;28;20064;-51
2021/01/30 04:56:37;;;;;;;16.40;7.85;;;;;;;-0.15;61.25;96500.44;10496946;28;20118;-51
2021/01/30 05:01:46;;;;;;;18.25;9.02;;;;;;;-0.23;61.62;96510.66;10496859;28;20198;-51
2021/01/30 05:07:14;;;;;;;19.58;8.75;;;;;;;-0.18;61.41;96507.66;10496963;28;20080;-51
2021/01/30 05:12:22;;;;;;;20.50;9.55;;;;;;;-0.22;61.83;96514.84;10493597;28;20052;-51
2021/01/30 05:17:28;;;;;;;22.23;10.75;;;;;;;-0.15;61.98;96512.53;10497287;28;20048;-52
2021/01/30 05:22:37;;;;;;;16.38;8.48;;;;;;;-0.08;61.75;96519.56;10496359;28;20049;-51
2021/01/30 05:27:57;;;;;;;18.38;9.35;;;;;;;-0.07;62.12;96508.25;10495434;28;20060;-53
2021/01/30 05:33:13;;;;;;;11.30;4.38;;;;;;;-0.07;61.64;96515.19;10501398;28;20131;-51
2021/01/30 05:38:37;;;;;;;18.63;9.15;;;;;;;-0.05;62.32;96516.69;10495809;28;20761;-54
2021/01/30 05:43:49;;;;;;;18.10;7.95;;;;;;;-0.03;62.03;96517.38;10496265;28;20052;-52
2021/01/30 05:48:53;;;;;;;15.43;7.28;;;;;;;0.06;61.70;96515.66;10493193;28;20048;-54
2021/01/30 05:53:55;;;;;;;15.70;7.25;;;;;;;0.04;61.37;96514.22;10495338;28;20489;-53
2021/01/30 05:59:00;;;;;;;14.05;6.28;;;;;;;-0.01;61.47;96515.44;10495422;28;20056;-51
2021/01/30 06:04:05;;;;;;;15.18;6.97;;;;;;;0.01;61.28;96517.09;10497165;28;20059;-53
2021/01/30 06:09:10;;;;;;;16.77;7.32;;;;;;;0.09;61.73;96519.75;10496303;28;20163;-53
2021/01/30 06:14:28;;;;;;;9.85;4.63;;;;;;;0.09;61.53;96524.91;10497244;28;20044;-52
2021/01/30 06:19:32;;;;;;;12.15;4.70;;;;;;;0.04;61.64;96527.94;10506040;28;20075;-54
2021/01/30 06:24:35;;;;;;;15.18;6.63;;;;;;;0.03;61.67;96540.97;10505746;28;20147;-52
2021/01/30 06:29:43;;;;;;;13.13;6.27;;;;;;;0.04;61.66;96529.72;10503797;28;20481;-51
2021/01/30 06:34:46;;;;;;;14.63;6.55;;;;;;;-0.05;61.08;96542.50;10500608;28;20105;-50
2021/01/30 06:39:48;;;;;;;;;;;;;;;-0.04;61.49;96541.53;10502993;28;20561;-51
2021/01/30 06:44:50;;;;;;;14.02;5.90;;;;;;;0.06;61.18;96543.28;10504352;28;20281;-52
2021/01/30 06:49:54;;;;;;;9.40;4.45;;;;;;;0.08;60.73;96542.19;10504443;28;20468;-52
2021/01/30 06:55:11;;;;;;;10.15;5.10;;;;;;;0.09;60.89;96543.00;10503640;28;20060;-50
2021/01/30 07:00:26;;;;;;;11.20;5.53;;;;;;;0.22;61.03;96546.88;10503607;28;20151;-52
2021/01/30 07:05:34;;;;;;;9.93;5.40;;;;;;;0.26;60.36;96555.16;10503676;28;20381;-54
2021/01/30 07:10:46;;;;;;;10.40;5.00;;;;;;;0.18;60.41;96555.84;10502792;28;20051;-54
2021/01/30 07:16:01;;;;;;;14.02;5.55;;;;;;;0.20;61.02;96559.13;10502899;28;20075;-53
2021/01/30 07:21:16;;;;;;;12.25;5.10;;;;;;;0.38;60.80;96566.13;10502544;28;20496;-51
2021/01/30 07:26:23;;;;;;;8.18;4.15;;;;;;;0.40;60.61;96554.69;10502588;28;20059;-51
2021/01/30 07:31:31;;;;;;;10.77;4.38;;;;;;;0.39;60.09;96573.72;10506484;28;20083;-53
2021/01/30 07:36:38;;;;;;;10.88;5.18;;;;;;;0.41;60.03;96571.81;10503567;28;20084;-52
2021/01/30 07:41:48;;;;;;;10.52;5.13;;;;;;;0.48;59.74;96581.56;10501969;28;20063;-52
2021/01/30 07:47:05;;;;;;;9.07;4.63;;;;;;;0.50;59.77;96584.84;10501764;28;20542;-51
2021/01/30 07:52:11;;;;;;;12.77;5.97;;;;;;;0.50;59.81;96584.84;10500965;28;20056;-52
2021/01/30 07:57:33;;;;;;;10.63;4.75;;;;;;;0.52;59.54;96595.81;10501528;28;20048;-55
2021/01/30 08:02:56;;;;;;;11.48;5.05;;;;;;;0.56;59.74;96600.56;10501104;28;20061;-53
2021/01/30 08:08:07;;;;;;;10.85;4.82;;;;;;;0.58;59.15;96608.97;10502100;28;20151;-51
2021/01/30 08:13:28;;;;;;;11.32;5.28;;;;;;;0.67;59.08;96608.09;10501197;28;20106;-52
2021/01/30 08:18:37;;;;;;;11.52;4.72;;;;;;;0.75;58.99;96614.34;10499712;28;20527;-52
2021/01/30 08:23:48;;;;;;;7.57;3.67;;;;;;;0.71;58.88;96623.34;10500032;28;20062;-52
2021/01/30 08:29:12;;;;;;;9.27;3.58;;;;;;;0.73;59.08;96635.16;10499552;28;20040;-52
2021/01/30 08:34:31;;;;;;;10.23;5.20;;;;;;;0.83;58.75;96638.53;10499338;28;20059;-52
2021/01/30 08:39:34;;;;;;;12.48;5.03;;;;;;;0.85;58.70;96634.00;10497104;28;20060;-52
2021/01/30 08:44:51;;;;;;;13.30;5.22;;;;;;;0.94;58.36;96641.88;10498516;28;20072;-53
2021/01/30 08:50:01;;;;;;;8.98;4.20;;;;;;;0.82;58.48;96644.63;10498867;28;20056;-54
2021/01/30 08:55:37;;;;;;;8.85;4.53;;;;;;;0.88;58.83;96649.22;10499417;28;20217;-52
2021/01/30 09:00:55;;;;;;;8.38;3.42;;;;;;;0.99;58.88;96650.00;10491738;28;20062;-51
2021/01/30 09:05:57;;;;;;;17.02;5.68;;;;;;;1.00;59.11;96665.38;10497636;28;20086;-52
2021/01/30 09:11:38;;;;;;;9.40;5.10;;;;;;;1.11;59.20;96669.53;10498136;28;20452;-53
2021/01/30 09:16:52;;;;;;;8.93;4.68;;;;;;;1.18;59.67;96667.97;10477755;28;20058;-52
2021/01/30 09:22:06;;;;;;;8.27;4.68;;;;;;;1.43;59.73;96676.00;10498317;28;20144;-52
2021/01/30 09:27:13;;;;;;;10.88;4.68;;;;;;;1.57;60.43;96667.69;10501562;28;20048;-52
2021/01/30 09:32:21;;;;;;;12.52;5.68;;;;;;;1.74;60.08;96679.81;10502341;28;20106;-54
2021/01/30 09:37:34;;;;;;;10.02;4.57;;;;;;;1.79;60.09;96680.19;10497751;28;20052;-52
2021/01/30 09:42:36;;;;;;;11.73;4.72;;;;;;;1.78;60.10;96675.94;10497244;28;20496;-53
2021/01/30 09:47:52;;;;;;;8.93;3.92;;;;;;;1.93;60.05;96689.19;10496707;28;20052;-53
2021/01/30 09:52:59;;;;;;;8.55;3.97;;;;;;;1.86;60.19;96693.34;10497266;28;20079;-52
2021/01/30 09:58:07;;;;;;;7.60;3.00;;;;;;;1.87;60.03;96696.75;10497240;28;20460;-51
2021/01/30 10:03:18;;;;;;;9.57;4.43;;;;;;;1.88;59.79;96700.97;10496264;28;20145;-54
2021/01/30 10:08:26;;;;;;;11.65;4.53;;;;;;;2.00;59.95;96712.72;10497267;28;20161;-52
2021/01/30 10:13:28;;;;;;;11.05;3.42;;;;;;;2.08;59.64;96717.97;10497882;28;20159;-53
2021/01/30 10:18:33;;;;;;;10.32;4.28;;;;;;;2.18;59.53;96726.44;10496908;28;20067;-53
2021/01/30 10:23:39;;;;;;;9.20;4.35;;;;;;;2.11;59.17;96722.84;10496401;28;20053;-54
2021/01/30 10:28:48;;;;;;;8.98;4.38;;;;;;;2.02;59.26;96734.91;10496415;28;20044;-52
2021/01/30 10:33:54;;;;;;;9.57;4.00;;;;;;;2.05;59.38;96734.63;10495940;28;20049;-54
2021/01/30 10:39:01;;;;;;;8.73;4.15;;;;;;;2.13;59.75;96736.47;10496120;28;20045;-53
2021/01/30 10:44:05;;;;;;;7.82;2.92;;;;;;;1.91;58.93;96732.59;10496185;28;20190;-52
2021/01/30 10:49:11;;;;;;;9.07;3.63;;;;;;;1.75;58.79;96743.59;10496046;28;20091;-52
2021/01/30 10:54:25;;;;;;;8.20;3.67;;;;;;;1.64;58.65;96749.00;10495863;28;20405;-54
2021/01/30 10:59:26;;;;;;;;;;;;;;;1.73;58.31;96750.72;10495721;28;20071;-52
2021/01/30 11:04:28;;;;;;;7.80;3.00;;;;;;;1.61;58.03;96757.88;10502513;28;19932;-57
2021/01/30 11:09:34;;;;;;;5.97;1.80;;;;;;;1.54;58.05;96761.19;10502990;28;20055;-55
2021/01/30 11:14:37;;;;;;;7.35;3.00;;;;;;;1.45;58.34;96777.59;10503043;28;20071;-53
2021/01/30 11:19:43;;;;;;;6.43;3.00;;;;;;;1.50;57.47;96776.19;10506461;28;20052;-58
2021/01/30 11:24:50;;;;;;;5.85;2.40;;;;;;;1.47;57.34;96786.03;10504573;28;20058;-52
2021/01/30 11:29:52;;;;;;;6.90;2.30;;;;;;;1.38;57.31;96790.28;10502761;28;20055;-53
2021/01/30 11:34:56;;;;;;;5.60;2.03;;;;;;;1.45;56.79;96787.94;10502091;28;20049;-52
2021/01/30 11:40:04;;;;;;;6.45;3.40;;;;;;;1.43;56.96;96802.81;10501670;28;20037;-53
2021/01/30 11:45:07;;;;;;;6.45;2.42;;;;;;;1.45;56.72;96803.47;10501693;28;20538;-52
2021/01/30 11:50:11;;;;;;;5.67;2.40;;;;;;;1.28;57.63;96818.00;10501801;28;20765;-51
2021/01/30 11:55:14;;;;;;;5.32;2.20;;;;;;;1.28;58.65;96821.41;10501145;28;20226;-55
2021/01/30 12:00:17;;;;;;;6.53;2.33;;;;;;;1.32;58.88;96824.53;10500506;28;20056;-51
2021/01/30 12:05:19;;;;;;;7.07;2.67;;;;;;;1.37;58.45;96843.84;10500419;28;20253;-55
2021/01/30 12:10:22;;;;;;;7.65;3.08;;;;;;;1.40;59.07;96842.75;10500103;28;20059;-53
2021/01/30 12:15:23;;;;;;;7.95;3.25;;;;;;;1.46;59.27;96841.38;10498672;28;20552;-52
2021/01/30 12:20:28;;;;;;;5.68;1.92;;;;;;;1.45;59.45;96850.91;10499660;28;20430;-51
2021/01/30 12:25:31;;;;;;;4.78;2.15;;;;;;;1.43;59.69;96837.28;10500189;28;20048;-54
2021/01/30 12:30:36;;;;;;;9.65;2.58;;;;;;;1.42;59.77;96850.34;10498224;28;20066;-54
2021/01/30 12:35:37;;;;;;;5.13;1.75;;;;;;;1.42;59.72;96852.94;10500777;28;20542;-51
2021/01/30 12:40:42;;;;;;;5.95;2.10;;;;;;;1.40;59.79;96854.88;10499011;28;20055;-53
2021/01/30 12:45:44;;;;;;;5.38;1.98;;;;;;;1.25;58.77;96865.69;10499505;28;20117;-55
2021/01/30 12:50:47;;;;;;;6.00;2.38;;;;;;;1.24;58.63;96853.72;10498953;28;20045;-52
2021/01/30 12:55:50;;;;;;;4.43;1.53;;;;;;;1.13;58.19;96859.06;10498666;28;20049;-52
2021/01/30 13:00:52;;;;;;;6.13;1.90;;;;;;;1.01;58.25;96871.34;10499640;28;20370;-53
2021/01/30 13:05:54;;;;;;;6.50;1.63;;;;;;;1.10;58.10;96877.44;10498333;28;20044;-51
2021/01/30 13:10:57;;;;;;;5.45;2.00;;;;;;;1.13;57.89;96882.34;10501664;28;20044;-53
2021/01/30 13:15:59;;;;;;;3.97;1.65;;;;;;;1.10;57.64;96888.59;10500354;28;20508;-51
2021/01/30 13:21:03;;;;;;;4.60;1.70;;;;;;;1.01;57.67;96884.28;10497401;28;20599;-51
2021/01/30 13:26:06;;;;;;;4.38;1.65;;;;;;;1.00;57.29;96887.00;10497881;28;20078;-52
2021/01/30 13:31:08;;;;;;;5.38;1.80;;;;;;;0.90;56.62;96894.81;10498411;28;20044;-51
2021/01/30 13:36:10;;;;;;;5.35;1.65;;;;;;;0.84;57.12;96909.09;10497858;28;20397;-52
2021/01/30 13:41:12;;;;;;;5.53;1.80;;;;;;;0.93;56.66;96907.44;10497633;28;20059;-53
2021/01/30 13:46:14;;;;;;;4.50;2.28;;;;;;;0.93;56.29;96924.75;10497459;28;20060;-51
2021/01/30 13:51:16;;;;;;;10.70;1.90;;;;;;;0.94;57.14;96926.38;10497246;28;20461;-51
2021/01/30 13:56:18;;;;;;;6.97;2.45;;;;;;;1.01;56.69;96924.84;10497445;28;20079;-54
2021/01/30 14:01:22;;;;;;;6.53;2.30;;;;;;;0.97;56.58;96939.84;10497157;28;20052;-57
2021/01/30 14:06:24;;;;;;;5.50;2.17;;;;;;;1.01;56.33;96945.53;10498548;28;20045;-52
2021/01/30 14:11:27;;;;;;;6.07;2.05;;;;;;;1.01;56.58;96951.53;10497023;28;20048;-54
2021/01/30 14:16:29;;;;;;;5.65;2.42;;;;;;;0.96;56.83;96960.69;10496821;28;20147;-51
2021/01/30 14:21:30;;;;;;;5.10;1.85;;;;;;;0.97;56.95;96954.53;10496628;28;20707;-51
2021/01/30 14:26:33;;;;;;;5.43;2.20;;;;;;;0.97;56.42;96957.13;10496863;28;20045;-51
2021/01/30 14:31:35;;;;;;;5.75;2.13;;;;;;;0.94;56.28;96965.16;10496742;28;20071;-54
2021/01/30 14:36:36;;;;;;;4.10;1.65;;;;;;;0.93;56.19;96971.31;10499459;28;20530;-52
2021/01/30 14:41:39;;;;;;;4.65;1.77;;;;;;;0.78;56.07;96982.06;10504411;28;20395;-51
2021/01/30 14:46:43;;;;;;;4.57;1.73;;;;;;;0.76;56.25;96983.94;10504679;28;20048;-52
2021/01/30 14:51:44;;;;;;;;;;;;;;;0.75;55.82;96978.94;10505358;28;20098;-53
2021/01/30 14:56:46;;;;;;;3.45;1.05;;;;;;;0.69;56.12;96978.50;10503604;28;19934;-53
2021/01/30 15:01:48;;;;;;;2.92;1.13;;;;;;;0.67;56.33;96993.31;10503497;28;20060;-51
2021/01/30 15:06:50;;;;;;;6.53;2.72;;;;;;;0.60;56.31;96989.66;10503490;28;20061;-53
2021/01/30 15:11:52;;;;;;;3.63;1.27;;;;;;;0.60;56.21;97004.34;10502799;28;20056;-54
2021/01/30 15:16:54;;;;;;;5.97;2.15;;;;;;;0.54;56.42;97002.31;10507043;28;20492;-52
2021/01/30 15:21:56;;;;;;;6.22;2.13;;;;;;;0.54;56.34;97004.91;10509068;28;20147;-52
2021/01/30 15:26:59;;;;;;;10.15;2.75;;;;;;;0.62;56.41;97015.41;10502858;28;20052;-53
2021/01/30 15:32:00;;;;;;;6.43;2.43;;;;;;;0.64;56.32;97026.41;10502420;28;20055;-52
2021/01/30 15:37:04;;;;;;;7.63;2.75;;;;;;;0.62;56.41;97029.13;10502191;28;20048;-52
2021/01/30 15:42:06;;;;;;;8.65;2.80;;;;;;;0.58;56.59;97024.34;10501458;28;20059;-51
2021/01/30 15:47:08;;;;;;;5.95;2.22;;;;;;;0.55;56.49;97033.19;10501290;28;20180;-54
2021/01/30 15:52:10;;;;;;;3.90;1.48;;;;;;;0.50;56.41;97034.56;10501400;28;20059;-52
2021/01/30 15:57:12;;;;;;;6.82;3.25;;;;;;;0.46;56.86;97041.72;10501674;28;20382;-53
2021/01/30 16:02:14;;;;;;;7.65;2.70;;;;;;;0.47;56.37;97035.63;10502717;28;20057;-54
2021/01/30 16:07:16;;;;;;;9.40;3.13;;;;;;;0.44;56.29;97047.06;10502188;28;20058;-53
2021/01/30 16:12:18;;;;;;;5.03;1.95;;;;;;;0.40;56.87;97037.94;10500372;28;20060;-53
2021/01/30 16:17:20;;;;;;;6.38;2.78;;;;;;;0.43;56.91;97048.00;10500368;28;20045;-52
2021/01/30 16:22:22;;;;;;;6.93;2.50;;;;;;;0.42;56.79;97046.34;10499786;28;20105;-54
2021/01/30 16:27:25;;;;;;;7.82;2.92;;;;;;;0.40;56.87;97050.84;10499743;28;20049;-53
2021/01/30 16:32:27;;;;;;;4.40;1.67;;;;;;;0.32;57.05;97049.88;10502010;28;20133;-55
2021/01/30 16:37:30;;;;;;;5.00;2.03;;;;;;;0.21;57.03;97055.94;10501019;28;20052;-52
2021/01/30 16:42:32;;;;;;;6.53;3.28;;;;;;;0.20;57.17;97060.31;10499729;28;20058;-51
2021/01/30 16:47:34;;;;;;;4.78;2.08;;;;;;;0.18;57.44;97061.38;10499348;28;20044;-54
2021/01/30 16:52:36;;;;;;;7.35;2.88;;;;;;;0.18;57.39;97063.97;10499252;28;20045;-53
2021/01/30 16:57:39;;;;;;;8.45;3.35;;;;;;;0.30;57.52;97060.34;10498688;28;20139;-52
2021/01/30 17:02:41;;;;;;;6.27;2.50;;;;;;;0.33;57.17;97060.06;10498352;28;20048;-54
2021/01/30 17:07:42;;;;;;;7.13;2.83;;;;;;;0.29;57.32;97063.88;10498561;28;20048;-51
2021/01/30 17:12:45;;;;;;;6.80;3.03;;;;;;;0.27;57.18;97063.19;10499480;28;20055;-51
2021/01/30 17:17:47;;;;;;;8.25;3.35;;;;;;;0.28;56.99;97066.56;10498172;28;20044;-51
2021/01/30 17:22:49;;;;;;;8.85;3.92;;;;;;;0.27;57.03;97060.59;10498497;28;20131;-51
2021/01/30 17:27:52;;;;;;;7.25;2.90;;;;;;;0.31;56.36;97062.00;10499384;28;20044;-52
2021/01/30 17:32:54;;;;;;;7.27;2.90;;;;;;;0.30;56.35;97065.50;10499148;28;20056;-56
2021/01/30 17:37:56;;;;;;;6.07;2.38;;;;;;;0.32;55.92;97083.47;10498998;28;20076;-51
2021/01/30 17:43:01;;;;;;;5.90;2.70;;;;;;;0.21;55.24;97082.59;10497583;28;20044;-52
2021/01/30 17:48:04;;;;;;;5.30;2.60;;;;;;;0.15;55.76;97077.94;10497354;28;20048;-53
2021/01/30 17:53:06;;;;;;;6.55;3.00;;;;;;;0.17;55.33;97080.41;10496298;28;20044;-53
2021/01/30 17:58:09;;;;;;;6.70;2.83;;;;;;;0.21;55.26;97087.75;10496729;28;20067;-53
2021/01/30 18:03:14;;;;;;;4.57;1.67;;;;;;;0.31;55.37;97087.81;10496764;28;20056;-52
2021/01/30 18:08:16;;;;;;;9.73;3.25;;;;;;;0.31;55.30;97087.81;10496727;28;20040;-51
2021/01/30 18:13:18;;;;;;;6.85;2.88;;;;;;;0.24;55.00;97076.34;10502432;28;20063;-52
2021/01/30 18:18:20;;;;;;;7.85;2.95;;;;;;;0.23;55.31;97083.28;10504635;28;20049;-52
2021/01/30 18:23:23;;;;;;;6.57;2.60;;;;;;;0.25;55.06;97078.00;10504608;28;20120;-53
2021/01/30 18:28:26;;;;;;;4.25;1.52;;;;;;;0.29;55.13;97088.91;10505044;28;20074;-51
2021/01/30 18:33:27;;;;;;;6.83;3.20;;;;;;;0.27;54.74;97081.25;10504584;28;20417;-54
2021/01/30 18:38:29;;;;;;;7.70;3.70;;;;;;;0.29;54.50;97074.22;10503026;28;20049;-50
2021/01/30 18:43:32;;;;;;;8.60;3.38;;;;;;;0.28;54.58;97082.91;10503939;28;20063;-53
2021/01/30 18:48:33;;;;;;;7.95;2.90;;;;;;;0.29;54.94;97073.41;10503789;28;20052;-52
2021/01/30 18:53:35;;;;;;;7.20;2.85;;;;;;;0.28;54.80;97082.91;10503477;28;20049;-53
2021/01/30 18:58:38;;;;;;;7.88;3.15;;;;;;;0.36;54.63;97074.50;10503220;28;20059;-51
2021/01/30 19:03:39;;;;;;;8.13;3.33;;;;;;;0.46;54.92;97070.16;10503316;28;20045;-52
2021/01/30 19:08:42;;;;;;;6.10;2.80;;;;;;;0.56;54.88;97072.81;10503639;28;20104;-53
2021/01/30 19:13:44;;;;;;;7.57;3.75;;;;;;;0.37;55.31;97076.97;10502630;28;20500;-53
2021/01/30 19:18:46;;;;;;;6.95;3.78;;;;;;;0.31;55.90;97074.91;10503495;28;20136;-54
2021/01/30 19:23:48;;;;;;;9.73;3.80;;;;;;;0.25;55.65;97075.44;10502470;28;20040;-51
2021/01/30 19:28:51;;;;;;;10.02;4.38;;;;;;;0.26;56.27;97071.06;10502539;28;20151;-52
2021/01/30 19:33:52;;;;;;;9.43;3.50;;;;;;;0.31;56.04;97071.47;10502437;28;20131;-51
2021/01/30 19:38:54;;;;;;;8.32;3.50;;;;;;;0.26;56.80;97069.31;10501591;28;20052;-53
2021/01/30 19:43:57;;;;;;;10.07;4.88;;;;;;;0.31;56.63;97069.75;10502880;28;20048;-53
2021/01/30 19:48:59;;;;;;;8.30;4.28;;;;;;;0.28;56.51;97077.75;10502007;28;20110;-58
2021/01/30 19:54:00;;;;;;;8.90;3.63;;;;;;;0.19;57.20;97073.38;10503053;28;20098;-52
2021/01/30 19:59:03;;;;;;;9.15;4.55;;;;;;;0.17;56.91;97064.91;10501421;28;20485;-52
2021/01/30 20:04:05;;;;;;;12.13;4.45;;;;;;;0.26;57.35;97079.63;10501041;28;20456;-52
2021/01/30 20:09:07;;;;;;;6.13;2.67;;;;;;;0.18;57.52;97082.84;10500573;28;20048;-52
2021/01/30 20:14:09;;;;;;;13.07;6.68;;;;;;;0.06;57.58;97077.91;10500129;28;20048;-58
2021/01/30 20:19:11;;;;;;;8.25;4.35;;;;;;;-0.05;58.30;97071.91;10499742;28;20066;-51
2021/01/30 20:24:12;;;;;;;13.43;4.75;;;;;;;-0.10;58.41;97078.38;10498993;28;20056;-52
2021/01/30 20:29:15;;;;;;;14.52;5.30;;;;;;;-0.09;58.77;97080.03;10504191;28;20090;-53
2021/01/30 20:34:17;;;;;;;9.73;4.50;;;;;;;-0.02;58.49;97087.13;10504024;28;20130;-52
2021/01/30 20:39:18;;;;;;;11.90;5.05;;;;;;;0.01;58.80;97086.06;10499867;28;20072;-51
2021/01/30 20:44:21;;;;;;;11.90;5.05;;;;;;;-0.08;58.93;97092.81;10498811;28;20101;-52
2021/01/30 20:49:23;;;;;;;12.07;5.32;;;;;;;-0.03;58.88;97095.84;10498461;28;20055;-51
2021/01/30 20:54:25;;;;;;;11.57;4.35;;;;;;;-0.05;59.42;97089.16;10498309;28;20056;-54
2021/01/30 20:59:28;;;;;;;12.15;5.65;;;;;;;-0.22;59.69;97085.38;10498507;28;20063;-52
2021/01/30 21:04:30;;;;;;;4.93;1.98;;;;;;;-0.19;60.04;97095.47;10498412;28;20049;-53
2021/01/30 21:09:31;;;;;;;9.35;3.63;;;;;;;-0.41;60.62;97087.88;10498891;28;20079;-52
2021/01/30 21:14:34;;;;;;;8.55;3.40;;;;;;;-0.45;60.94;97079.56;10498742;28;20059;-52
2021/01/30 21:19:36;;;;;;;9.80;3.93;;;;;;;-0.47;61.25;97079.66;10498313;28;20048;-51
2021/01/30 21:24:38;;;;;;;10.35;4.68;;;;;;;-0.49;61.09;97081.56;10498290;28;20048;-53
2021/01/30 21:29:40;;;;;;;10.60;5.38;;;;;;;-0.50;61.29;97086.84;10500216;28;20374;-56
2021/01/30 21:34:44;;;;;;;12.82;5.03;;;;;;;-0.54;61.41;97081.13;10503360;28;20055;-53
2021/01/30 21:39:46;;;;;;;8.82;4.00;;;;;;;-0.62;61.33;97075.75;10498513;28;20037;-53
2021/01/30 21:44:48;;;;;;;9.30;3.80;;;;;;;-0.76;61.51;97091.56;10497452;28;20048;-53
2021/01/30 21:49:50;;;;;;;9.18;4.57;;;;;;;-0.72;61.99;97073.13;10497759;28;20056;-52
2021/01/30 21:54:52;;;;;;;8.60;4.53;;;;;;;-0.69;61.98;97077.22;10497363;28;20055;-53
2021/01/30 21:59:54;;;;;;;11.40;5.43;;;;;;;-0.80;62.17;97069.53;10498011;28;20057;-56
2021/01/30 22:04:56;;;;;;;11.50;5.38;;;;;;;-0.79;62.20;97069.41;10497514;28;20557;-53
2021/01/30 22:09:58;;;;;;;15.48;5.88;;;;;;;-0.66;62.10;97069.22;10498535;28;20134;-53
2021/01/30 22:15:00;;;;;;;11.02;3.45;;;;;;;-0.64;61.84;97069.94;10498674;28;20044;-52
2021/01/30 22:20:03;;;;;;;11.07;4.30;;;;;;;-0.66;61.77;97065.84;10496843;28;20386;-54
2021/01/30 22:25:05;;;;;;;12.25;5.85;;;;;;;-0.74;62.01;97063.88;10496997;28;20056;-54
2021/01/30 22:30:09;;;;;;;11.67;5.27;;;;;;;-0.81;61.85;97066.13;10497523;28;20054;-52
2021/01/30 22:35:13;;;;;;;12.88;4.95;;;;;;;-0.80;61.96;97064.34;10496781;28;20090;-51
2021/01/30 22:40:17;;;;;;;12.48;4.70;;;;;;;-0.85;62.04;97063.94;10497065;28;20114;-51
2021/01/30 22:45:21;;;;;;;12.38;5.65;;;;;;;-0.81;61.88;97062.72;10496790;28;20055;-55
2021/01/30 22:50:23;;;;;;;12.20;5.47;;;;;;;-0.72;61.75;97064.56;10498356;28;20055;-51
2021/01/30 22:55:24;;;;;;;14.63;5.78;;;;;;;-0.74;61.23;97054.38;10497167;28;20050;-52
2021/01/30 23:00:44;;;;;;;9.65;4.25;;;;;;;-0.78;61.59;97057.31;10503531;28;20061;-51
2021/01/30 23:05:47;;;;;;;12.27;4.85;;;;;;;-0.79;61.90;97053.13;10504722;28;20377;-52
2021/01/30 23:10:49;;;;;;;12.73;5.60;;;;;;;-0.77;61.55;97049.47;10503210;28;20041;-52
2021/01/30 23:15:52;;;;;;;9.02;4.38;;;;;;;-0.72;61.23;97042.16;10503077;28;20062;-51
2021/01/30 23:20:57;;;;;;;14.88;6.10;;;;;;;-0.74;61.35;97040.66;10502562;28;20504;-52
2021/01/30 23:26:00;;;;;;;12.40;5.82;;;;;;;-0.70;61.47;97029.16;10503277;28;20504;-52
2021/01/30 23:31:05;;;;;;;13.90;7.00;;;;;;;-0.60;61.40;97024.88;10501933;28;20367;-54
2021/01/30 23:36:07;;;;;;;12.93;5.15;;;;;;;-0.50;61.22;97014.59;10502885;28;20048;-52
2021/01/30 23:41:09;;;;;;;11.73;5.63;;;;;;;-0.49;61.47;97001.56;10502617;28;20059;-53